Thomasville, GA

12:39 AM EDT on July 24, 2014 (GMT -0400)
Glen Arven CC (KGATHOMA6) Elev 276 ft | 30.82 °N, 83.96 °W | Change Station

Current weather conditions updated 23 seconds ago

Clear
Clear
78.8 °F
Feels Like 77 °F
N
0.4
Wind Variable Wind from WNW
Gusts 0.4 mph

Today is forecast to be Much Cooler than yesterday. Afternoon showers and thunderstorms.

Today
High -- | Low -- °F
--% Chance of Precip.
Yesterday
High -- | Low -- °F
Precip. -- in
6:48 AM 8:35 PM
Waning Crescent, 7% visible
Pressure 30.04 in
Visibility 10.0 miles
Clouds Clear
Heat Index 77 °F
Dew Point Not available.
Humidity Not available.
Rainfall 0.00 in
Snow Depth Not available.
UV 0 out of 12
Pollen 3.90 out of 12
Air Quality Not available.
Flu Activity Not available.
METAR KTVI 240435Z AUTO 00000KT 10SM CLR 25/25 A3004 RMK AO2

More Conditions Fewer Conditions

Pressure 30.04 in
Visibility 10.0 miles
Clouds Clear
Heat Index 77 °F
Dew Point Not available.
Humidity Not available.
Rainfall 0.00 in
Snow Depth Not available.
UV 0 out of 12
Pollen 3.90 out of 12
Air Quality Not available.
Flu Activity Not available.
METAR KTVI 240435Z AUTO 00000KT 10SM CLR 25/25 A3004 RMK AO2

More Conditions Fewer Conditions

10-Day Weather Forecast

Almanac

Astronomy

Jul. 24, 2014 Rise Set
Actual Time 6:48 AM EDT 8:35 PM EDT
Civil Twilight 6:21 AM EDT 9:02 PM EDT
Nautical Twilight 5:49 AM EDT 9:34 PM EDT
Astronomical Twilight 5:15 AM EDT 10:08 PM EDT
Moon 4:53 AM EDT 6:52 PM EDT
Length of Visible Light 14h 41m
Length of Day
13h 47m
Tomorrow will be 1m 13s shorter.
Waning Crescent, 7% of the Moon is Illuminated
Today
Waning Crescent
Jul 26
New
Aug 3
First Quarter
Aug 10
Full
Aug 17
Last Quarter

Today's Extremes

State Highs State Lows

Community

WunderPhotos

Upload Photos

1,736,911 photos uploaded!

Nearby

Snow Depth

Station Depth Elevation
No new snow has been reported.

Earthquake Activity

City Distance Mag. Time & Date
No recent earthquake activity has been reported nearby.
Minimum magnitude displayed is 2.5.

Coastal Water Temperatures

Place Temperature
No Stations Reporting

Nearby Weather Stations

Station Location Temp. Heat Index Dew Point Humidity Wind Precip. Elev Updated Type
Glen Arven CC, Glen Arven CC, GA 78.8 °F 77 °F -30 °F - WNW  at  0.4 mph 0.00 in / hr 276 ft 12:38 AM EDT Normal
Thomasville Downtown Area - CNS Internet, Thomasville, GA 78.3 °F 81 °F 73 °F 85% SW  at  0.0 mph 0.00 in / hr 215 ft 12:38 AM EDT Rapid Fire
KJ4ZNK, Cairo, GA 78.6 °F 81 °F 66 °F 65% South  at  0.0 mph 0.00 in / hr 302 ft 12:38 AM EDT Rapid Fire
City of Moultrie Service Center, Moultrie, GA 76.8 °F 78 °F 73 °F 87% WSW  at  1.0 mph 0.00 in / hr 299 ft 12:18 AM EDT Normal
Pecan Acres, Monticello, FL 75.6 °F 74 °F 75 °F 97% SE  at  0.0 mph - / hr 105 ft 12:19 AM EDT Normal

Show More Stations Show Fewer Stations